Time;durP1;ratioP1;P1;durP2;ratioP2;P2;SDS_P1;SDS_P2;PMS_P1;PMS_P2;Temp;Humidity;BMP_temperature;BMP_pressure;BME280_temperature;BME280_humidity;BME280_pressure;Samples;Min_cycle;Max_cycle;Signal;HPM_P1;HPM_P2
2022/04/12 00:01:05;;;;;;;9.60;4.85;;;7.10;99.90;;;;;;5034259;28;20503;-75
2022/04/12 00:03:31;;;;;;;9.07;4.65;;;7.00;99.90;;;;;;5029687;28;20408;-75
2022/04/12 00:05:57;;;;;;;7.50;4.22;;;7.20;99.90;;;;;;5035218;28;20046;-74
2022/04/12 00:08:24;;;;;;;14.27;4.68;;;7.00;99.90;;;;;;5029858;28;20064;-75
2022/04/12 00:10:50;;;;;;;14.35;5.88;;;6.90;99.90;;;;;;5038383;28;20048;-74
2022/04/12 00:13:19;;;;;;;12.65;5.65;;;6.90;99.90;;;;;;5047041;28;20045;-75
2022/04/12 00:15:48;;;;;;;9.40;4.68;;;6.90;99.90;;;;;;5037344;28;20400;-74
2022/04/12 00:20:59;;;;;;;11.60;5.85;;;6.80;99.90;;;;;;5045414;28;20072;-75
2022/04/12 00:23:24;;;;;;;8.23;4.55;;;6.80;99.90;;;;;;5034950;28;20485;-74
2022/04/12 00:25:50;;;;;;;7.85;4.55;;;6.80;99.90;;;;;;5029947;28;20046;-75
2022/04/12 00:28:16;;;;;;;10.18;4.60;;;6.80;99.90;;;;;;5036087;28;20077;-74
2022/04/12 00:30:42;;;;;;;14.40;5.40;;;6.70;99.90;;;;;;5037333;28;20366;-74
2022/04/12 00:33:08;;;;;;;10.68;4.93;;;6.70;99.90;;;;;;5037658;28;20132;-74
2022/04/12 00:35:35;;;;;;;8.82;5.10;;;6.70;99.90;;;;;;5036467;28;20155;-75
2022/04/12 00:38:01;;;;;;;11.80;5.05;;;6.70;99.90;;;;;;5037800;28;20086;-75
2022/04/12 00:40:27;;;;;;;10.40;5.22;;;6.70;99.90;;;;;;5038804;28;20419;-74
2022/04/12 00:42:53;;;;;;;12.82;5.32;;;6.70;99.90;;;;;;5032510;28;20036;-75
2022/04/12 00:45:20;;;;;;;8.18;5.22;;;6.70;99.90;;;;;;5036261;28;20048;-75
2022/04/12 00:47:46;;;;;;;11.80;5.90;;;6.70;99.90;;;;;;5030065;28;20064;-75
2022/04/12 00:50:13;;;;;;;10.13;4.72;;;6.60;99.90;;;;;;5045097;28;20048;-75
2022/04/12 00:52:42;;;;;;;10.27;4.75;;;6.70;99.90;;;;;;5032546;28;20053;-74
2022/04/12 00:55:09;;;;;;;10.43;5.78;;;6.70;99.90;;;;;;5032378;28;20405;-74
2022/04/12 00:57:36;;;;;;;9.57;5.30;;;6.60;99.90;;;;;;5036048;28;20057;-74
2022/04/12 01:00:05;;;;;;;10.05;5.70;;;6.60;99.90;;;;;;5030164;28;20091;-74
2022/04/12 01:02:33;;;;;;;9.43;5.85;;;6.60;99.90;;;;;;5029045;28;20061;-75
2022/04/12 01:05:03;;;;;;;10.25;5.40;;;6.60;99.90;;;;;;5034017;28;20484;-75
2022/04/12 01:07:31;;;;;;;9.25;5.63;;;6.60;99.90;;;;;;5033412;28;20497;-74
2022/04/12 01:09:58;;;;;;;10.50;6.32;;;6.50;99.90;;;;;;5036717;28;20439;-74
2022/04/12 01:12:28;;;;;;;15.18;5.90;;;6.50;99.90;;;;;;5037740;28;20056;-75
2022/04/12 01:14:54;;;;;;;10.02;5.43;;;6.50;99.90;;;;;;5034091;28;20060;-75
2022/04/12 01:17:20;;;;;;;13.45;6.03;;;6.60;99.90;;;;;;5039287;28;20053;-74
2022/04/12 01:19:46;;;;;;;15.43;5.40;;;6.40;99.90;;;;;;5043900;28;20037;-74
2022/04/12 01:22:24;;;;;;;11.50;6.22;;;6.40;99.90;;;;;;5037735;28;20053;-74
2022/04/12 01:24:50;;;;;;;10.75;6.70;;;6.40;99.90;;;;;;5036505;28;20049;-75
2022/04/12 01:27:15;;;;;;;9.10;5.85;;;6.30;99.90;;;;;;5033925;28;20041;-74
2022/04/12 01:29:41;;;;;;;12.52;6.28;;;6.40;99.90;;;;;;5036174;28;20044;-74
2022/04/12 01:32:08;;;;;;;11.15;5.85;;;6.30;99.90;;;;;;5037048;28;20420;-74
2022/04/12 01:34:37;;;;;;;9.68;6.22;;;6.30;99.90;;;;;;5045659;28;20054;-74
2022/04/12 01:37:03;;;;;;;11.60;6.50;;;6.30;99.90;;;;;;5036743;28;20056;-74
2022/04/12 01:39:30;;;;;;;11.00;5.97;;;6.20;99.90;;;;;;5047838;28;20049;-74
2022/04/12 01:41:56;;;;;;;14.15;7.00;;;6.20;99.90;;;;;;5030773;28;20199;-74
2022/04/12 01:44:22;;;;;;;11.77;6.63;;;6.20;99.90;;;;;;5037238;28;20127;-74
2022/04/12 01:46:47;;;;;;;10.15;6.30;;;6.20;99.90;;;;;;5043865;28;20037;-74
2022/04/12 01:49:13;;;;;;;13.35;7.10;;;6.20;99.90;;;;;;5033455;28;20068;-75
2022/04/12 01:51:39;;;;;;;12.15;6.75;;;6.20;99.90;;;;;;5035436;28;20041;-74
2022/04/12 01:54:05;;;;;;;15.07;6.68;;;6.20;99.90;;;;;;5042385;28;20044;-74
2022/04/12 01:56:32;;;;;;;12.88;6.50;;;6.20;99.90;;;;;;5042671;28;20053;-74
2022/04/12 01:59:02;;;;;;;13.38;7.10;;;6.20;99.90;;;;;;5047772;28;20054;-75
2022/04/12 02:01:29;;;;;;;14.15;6.50;;;6.10;99.90;;;;;;5039730;28;20042;-74
2022/04/12 02:03:55;;;;;;;13.40;6.43;;;6.10;99.90;;;;;;5035379;28;20070;-74
2022/04/12 02:06:21;;;;;;;10.55;6.55;;;6.10;99.90;;;;;;5043535;28;20049;-74
2022/04/12 02:08:47;;;;;;;12.77;6.75;;;6.10;99.90;;;;;;5039509;28;20052;-75
2022/04/12 02:11:13;;;;;;;12.07;7.63;;;6.10;99.90;;;;;;5036517;28;20044;-74
2022/04/12 02:13:39;;;;;;;13.23;7.05;;;6.00;99.90;;;;;;5040848;28;20033;-74
2022/04/12 02:16:05;;;;;;;15.70;8.00;;;6.00;99.90;;;;;;5045713;28;20095;-74
2022/04/12 02:18:31;;;;;;;13.10;6.70;;;6.00;99.90;;;;;;5033880;28;20405;-74
2022/04/12 02:20:56;;;;;;;16.83;8.07;;;6.00;99.90;;;;;;5033178;28;20056;-75
2022/04/12 02:23:22;;;;;;;12.60;7.70;;;5.90;99.90;;;;;;5043475;28;20056;-74
2022/04/12 02:25:48;;;;;;;13.88;6.97;;;5.90;99.90;;;;;;5033693;28;20063;-75
2022/04/12 02:28:15;;;;;;;13.52;8.32;;;5.80;99.90;;;;;;5037907;28;20041;-75
2022/04/12 02:30:43;;;;;;;12.02;6.93;;;5.80;99.90;;;;;;5043564;28;20033;-74
2022/04/12 02:33:11;;;;;;;14.27;7.40;;;5.80;99.90;;;;;;5041930;28;20400;-74
2022/04/12 02:35:36;;;;;;;14.25;7.90;;;5.80;99.90;;;;;;5040435;28;20080;-75
2022/04/12 02:38:02;;;;;;;11.18;7.13;;;5.70;99.90;;;;;;5036145;28;20087;-74
2022/04/12 02:40:28;;;;;;;11.32;7.05;;;5.70;99.90;;;;;;5046786;28;20045;-75
2022/04/12 02:42:54;;;;;;;15.40;8.13;;;5.70;99.90;;;;;;5033405;28;20382;-74
2022/04/12 02:45:19;;;;;;;15.00;8.10;;;5.70;99.90;;;;;;5043646;28;20048;-75
2022/04/12 02:47:45;;;;;;;12.85;8.15;;;5.70;99.90;;;;;;5040891;28;20064;-75
2022/04/12 02:50:11;;;;;;;12.02;7.53;;;5.60;99.90;;;;;;5035011;28;20041;-75
2022/04/12 02:52:36;;;;;;;13.32;7.25;;;5.60;99.90;;;;;;5041310;28;20051;-75
2022/04/12 02:55:02;;;;;;;15.80;7.20;;;5.60;99.90;;;;;;5032493;28;20400;-75
2022/04/12 02:57:28;;;;;;;13.60;7.90;;;5.60;99.90;;;;;;5035770;28;20069;-74
2022/04/12 02:59:54;;;;;;;15.93;8.20;;;5.60;99.90;;;;;;5046679;28;20058;-74
2022/04/12 03:02:19;;;;;;;10.35;7.30;;;5.50;99.90;;;;;;5033012;28;20049;-75
2022/04/12 03:04:45;;;;;;;14.30;7.88;;;5.50;99.90;;;;;;5043077;28;20049;-75
2022/04/12 03:07:11;;;;;;;13.95;8.05;;;5.50;99.90;;;;;;5017541;28;20042;-74
2022/04/12 03:09:36;;;;;;;13.20;7.47;;;5.50;99.90;;;;;;5038299;28;20052;-75
2022/04/12 03:12:04;;;;;;;14.68;7.93;;;5.50;99.90;;;;;;5034316;28;20041;-74
2022/04/12 03:14:30;;;;;;;13.68;7.32;;;5.50;99.90;;;;;;5042428;28;20072;-74
2022/04/12 03:16:55;;;;;;;15.05;8.90;;;5.50;99.90;;;;;;5040989;28;20471;-74
2022/04/12 03:19:22;;;;;;;12.73;8.15;;;5.50;99.90;;;;;;5047259;28;20036;-75
2022/04/12 03:21:48;;;;;;;11.00;6.72;;;5.50;99.90;;;;;;5044938;28;20515;-75
2022/04/12 03:24:13;;;;;;;12.63;8.48;;;5.50;99.90;;;;;;5038327;28;20030;-74
2022/04/12 03:26:39;;;;;;;13.45;7.63;;;5.50;99.90;;;;;;5046434;28;20136;-74
2022/04/12 03:29:05;;;;;;;11.73;7.68;;;5.40;99.90;;;;;;5033202;28;20108;-74
2022/04/12 03:31:30;;;;;;;13.48;7.68;;;5.40;99.90;;;;;;5032379;28;20111;-75
2022/04/12 03:33:56;;;;;;;13.70;7.65;;;5.40;99.90;;;;;;5036789;28;20048;-74
2022/04/12 03:36:21;;;;;;;13.93;8.60;;;5.40;99.90;;;;;;5045882;28;20887;-74
2022/04/12 03:38:50;;;;;;;16.25;8.27;;;5.30;99.90;;;;;;5031500;28;20145;-74
2022/04/12 03:41:19;;;;;;;15.35;9.27;;;5.30;99.90;;;;;;5032510;28;20400;-75
2022/04/12 03:43:47;;;;;;;12.63;8.07;;;5.30;99.90;;;;;;5033820;28;20528;-74
2022/04/12 03:46:13;;;;;;;15.82;8.57;;;5.30;99.90;;;;;;5039493;28;20099;-75
2022/04/12 03:48:39;;;;;;;13.65;7.88;;;5.30;99.90;;;;;;5037009;28;20053;-75
2022/04/12 03:51:05;;;;;;;13.70;8.55;;;5.20;99.90;;;;;;5039121;28;20128;-75
2022/04/12 03:53:31;;;;;;;15.30;8.27;;;5.20;99.90;;;;;;5044211;28;20144;-75
2022/04/12 03:55:56;;;;;;;18.17;9.32;;;5.20;99.90;;;;;;5038067;28;20054;-74
2022/04/12 03:58:22;;;;;;;14.98;8.27;;;5.20;99.90;;;;;;5035691;28;20094;-74
2022/04/12 04:00:48;;;;;;;18.85;8.68;;;5.20;99.90;;;;;;5042285;28;20040;-75
2022/04/12 04:03:15;;;;;;;13.80;8.88;;;5.20;99.90;;;;;;5035235;28;20045;-74
2022/04/12 04:05:40;;;;;;;14.38;9.05;;;5.20;99.90;;;;;;5042712;28;20068;-75
2022/04/12 04:08:07;;;;;;;14.52;9.00;;;5.10;99.90;;;;;;5029552;28;20045;-75
2022/04/12 04:10:33;;;;;;;12.90;8.93;;;5.20;99.90;;;;;;5031877;28;20200;-75
2022/04/12 04:12:59;;;;;;;16.85;8.80;;;5.10;99.90;;;;;;5033479;28;20120;-74
2022/04/12 04:15:24;;;;;;;17.02;9.35;;;5.20;99.90;;;;;;5034987;28;20056;-75
2022/04/12 04:17:50;;;;;;;16.50;10.32;;;5.20;99.90;;;;;;5030575;28;20072;-74
2022/04/12 04:20:18;;;;;;;16.30;9.00;;;5.20;99.90;;;;;;5038224;28;20412;-75
2022/04/12 04:22:44;;;;;;;14.38;9.30;;;5.10;99.90;;;;;;5041516;28;20045;-75
2022/04/12 04:25:13;;;;;;;14.65;8.98;;;5.10;99.90;;;;;;5050144;28;20166;-75
2022/04/12 04:27:39;;;;;;;16.20;9.85;;;5.10;99.90;;;;;;5043390;28;20098;-75
2022/04/12 04:30:10;;;;;;;16.20;9.30;;;5.10;99.90;;;;;;5037396;28;20559;-75
2022/04/12 04:32:37;;;;;;;14.15;9.15;;;5.10;99.90;;;;;;5039524;28;20048;-75
2022/04/12 04:35:03;;;;;;;15.32;8.98;;;5.10;99.90;;;;;;5037766;28;20551;-74
2022/04/12 04:37:29;;;;;;;15.90;8.93;;;5.10;99.90;;;;;;5029727;28;20388;-75
2022/04/12 04:39:55;;;;;;;15.93;8.85;;;5.10;99.90;;;;;;5037963;28;20049;-75
2022/04/12 04:42:21;;;;;;;15.45;9.55;;;5.00;99.90;;;;;;5038888;28;20053;-74
2022/04/12 04:44:47;;;;;;;17.13;9.68;;;5.10;99.90;;;;;;5040066;28;20811;-74
2022/04/12 04:47:14;;;;;;;18.55;9.20;;;5.00;99.90;;;;;;5044084;28;20034;-74
2022/04/12 04:49:39;;;;;;;15.85;9.15;;;5.00;99.90;;;;;;5038075;28;20096;-75
2022/04/12 04:52:06;;;;;;;15.68;10.05;;;5.00;99.90;;;;;;5044042;28;20515;-76
2022/04/12 04:54:31;;;;;;;15.45;9.63;;;5.00;99.90;;;;;;5039615;28;20595;-76
2022/04/12 04:56:59;;;;;;;16.38;9.32;;;5.00;99.90;;;;;;5041108;28;20112;-75
2022/04/12 04:59:24;;;;;;;17.45;9.48;;;4.90;99.90;;;;;;5039685;28;20073;-75
2022/04/12 05:01:50;;;;;;;16.80;9.80;;;4.90;99.90;;;;;;5043813;28;20091;-75
2022/04/12 05:04:16;;;;;;;21.15;10.05;;;4.90;99.90;;;;;;5046653;28;20041;-80
2022/04/12 05:06:41;;;;;;;15.90;10.00;;;4.90;99.90;;;;;;5032065;28;20382;-79
2022/04/12 05:09:08;;;;;;;19.15;10.93;;;4.90;99.90;;;;;;5042776;28;20037;-79
2022/04/12 05:11:34;;;;;;;18.23;10.52;;;4.90;99.90;;;;;;5034554;28;20036;-79
2022/04/12 05:14:00;;;;;;;17.08;9.68;;;4.90;99.90;;;;;;5043068;28;20436;-78
2022/04/12 05:16:25;;;;;;;17.00;9.95;;;4.90;99.90;;;;;;5045666;28;20392;-78
2022/04/12 05:18:51;;;;;;;14.98;9.73;;;4.90;99.90;;;;;;5028270;28;20127;-78
2022/04/12 05:21:18;;;;;;;15.63;9.77;;;4.90;99.90;;;;;;5055837;28;20098;-78
2022/04/12 05:23:44;;;;;;;20.30;9.98;;;4.90;99.90;;;;;;5038231;28;20120;-77
2022/04/12 05:26:10;;;;;;;15.68;9.90;;;4.90;99.90;;;;;;5048622;28;20132;-78
2022/04/12 05:28:36;;;;;;;17.92;9.73;;;4.90;99.90;;;;;;5049086;28;20132;-78
2022/04/12 05:31:04;;;;;;;17.10;10.02;;;4.90;99.90;;;;;;5040575;28;20426;-77
2022/04/12 05:33:30;;;;;;;20.17;10.00;;;4.90;99.90;;;;;;5038618;28;20064;-78
2022/04/12 05:35:55;;;;;;;17.65;10.55;;;5.00;99.90;;;;;;5050956;28;20037;-77
2022/04/12 05:38:21;;;;;;;17.45;11.30;;;5.00;99.90;;;;;;5035076;28;20099;-75
2022/04/12 05:40:46;;;;;;;16.92;9.98;;;5.20;99.90;;;;;;5040078;28;20180;-75
2022/04/12 05:43:12;;;;;;;14.05;9.23;;;5.20;99.90;;;;;;5036275;28;20063;-75
2022/04/12 05:45:38;;;;;;;14.70;9.90;;;5.30;99.90;;;;;;5039303;28;20059;-75
2022/04/12 05:48:03;;;;;;;17.27;9.88;;;5.50;99.90;;;;;;5047475;28;20091;-75
2022/04/12 05:50:29;;;;;;;19.30;10.32;;;5.60;99.90;;;;;;5048423;28;20496;-75
2022/04/12 05:52:55;;;;;;;17.38;9.32;;;5.70;99.90;;;;;;5048289;28;20034;-76
2022/04/12 05:55:23;;;;;;;15.70;9.68;;;5.80;99.90;;;;;;5034644;28;20041;-76
2022/04/12 05:57:56;;;;;;;16.58;10.02;;;5.90;99.90;;;;;;5039230;28;20068;-77
2022/04/12 06:00:23;;;;;;;17.75;10.05;;;6.10;99.90;;;;;;5038601;28;20046;-74
2022/04/12 06:02:50;;;;;;;16.80;9.98;;;6.20;99.90;;;;;;5040990;28;20041;-76
2022/04/12 06:05:16;;;;;;;17.48;10.30;;;6.30;99.90;;;;;;5031630;28;20037;-78
2022/04/12 06:07:42;;;;;;;16.00;9.27;;;6.40;99.90;;;;;;5044504;28;20361;-80
2022/04/12 06:10:10;;;;;;;13.88;9.85;;;6.40;99.90;;;;;;5036109;28;20099;-80
2022/04/12 06:12:36;;;;;;;17.48;11.10;;;6.40;99.90;;;;;;5041755;28;20052;-82
2022/04/12 06:15:01;;;;;;;16.27;9.80;;;6.50;99.90;;;;;;5043036;28;20037;-82
2022/04/12 06:17:32;;;;;;;15.70;9.73;;;6.50;99.90;;;;;;5036183;28;20113;-81
2022/04/12 06:20:08;;;;;;;16.80;9.75;;;6.50;99.90;;;;;;5041682;28;20045;-82
2022/04/12 06:22:34;;;;;;;17.40;9.93;;;6.60;99.90;;;;;;5037449;28;20059;-82
2022/04/12 06:25:00;;;;;;;15.93;10.32;;;6.70;99.90;;;;;;5039772;28;20397;-81
2022/04/12 06:27:34;;;;;;;15.77;10.05;;;6.70;99.90;;;;;;5043529;28;20128;-84
2022/04/12 06:30:09;;;;;;;18.98;10.10;;;6.80;99.90;;;;;;5036807;28;20120;-83
2022/04/12 06:32:36;;;;;;;14.40;8.68;;;6.80;99.90;;;;;;5050114;28;20041;-83
2022/04/12 06:35:03;;;;;;;15.45;10.35;;;6.90;99.90;;;;;;5052499;28;20051;-82
2022/04/12 06:37:29;;;;;;;16.50;10.05;;;6.90;99.90;;;;;;5050071;28;20041;-83
2022/04/12 06:39:59;;;;;;;16.25;10.43;;;6.90;99.90;;;;;;5033455;28;20458;-79
2022/04/12 06:42:25;;;;;;;16.92;9.82;;;7.00;99.90;;;;;;5041040;28;20448;-78
2022/04/12 06:44:51;;;;;;;18.17;10.25;;;7.00;99.90;;;;;;5038416;28;20039;-76
2022/04/12 06:47:17;;;;;;;19.40;10.55;;;7.00;99.90;;;;;;5032277;28;20045;-79
2022/04/12 06:49:46;;;;;;;16.00;9.48;;;7.10;99.90;;;;;;5033886;28;20044;-78
2022/04/12 06:52:13;;;;;;;18.30;10.63;;;7.10;99.90;;;;;;5053751;28;20079;-76
2022/04/12 06:54:38;;;;;;;18.58;10.52;;;7.20;99.90;;;;;;5039040;28;20033;-79
2022/04/12 06:57:04;;;;;;;16.17;10.38;;;7.30;99.90;;;;;;5048557;28;20131;-79
2022/04/12 06:59:30;;;;;;;16.02;10.02;;;7.30;99.90;;;;;;5050900;28;20048;-79
2022/04/12 07:01:56;;;;;;;17.73;10.63;;;7.40;99.90;;;;;;5047740;28;20049;-79
2022/04/12 07:04:21;;;;;;;15.20;9.65;;;7.50;99.90;;;;;;5051899;28;20045;-80
2022/04/12 07:06:47;;;;;;;19.08;10.60;;;7.50;99.90;;;;;;5051481;28;20095;-80
2022/04/12 07:09:18;;;;;;;15.52;9.32;;;7.60;99.90;;;;;;5052102;28;20118;-79
2022/04/12 07:11:45;;;;;;;16.40;10.38;;;7.60;99.90;;;;;;5041891;28;20085;-75
2022/04/12 07:14:11;;;;;;;14.77;9.43;;;7.70;99.90;;;;;;5050120;28;20053;-79
2022/04/12 07:16:36;;;;;;;16.55;10.15;;;7.70;99.90;;;;;;5050949;28;20098;-78
2022/04/12 07:19:02;;;;;;;18.95;9.90;;;7.60;99.90;;;;;;5033279;28;20041;-78
2022/04/12 07:21:29;;;;;;;16.27;10.68;;;7.70;99.90;;;;;;5049769;28;20037;-79
2022/04/12 07:23:55;;;;;;;17.42;9.55;;;7.70;99.90;;;;;;5050112;28;20076;-78
2022/04/12 07:26:21;;;;;;;15.15;9.63;;;7.70;99.90;;;;;;5042080;28;20056;-79
2022/04/12 07:28:46;;;;;;;15.93;9.85;;;7.70;99.90;;;;;;5039239;28;20038;-78
2022/04/12 07:31:12;;;;;;;15.00;10.20;;;7.70;99.90;;;;;;5049860;28;20066;-79
2022/04/12 07:33:37;;;;;;;17.63;9.35;;;7.70;99.90;;;;;;5049689;28;20081;-77
2022/04/12 07:36:04;;;;;;;16.42;10.32;;;7.80;99.90;;;;;;5046496;28;20123;-78
2022/04/12 07:38:29;;;;;;;16.73;10.30;;;7.80;99.90;;;;;;5047042;28;20090;-79
2022/04/12 07:40:55;;;;;;;14.88;10.07;;;7.90;99.90;;;;;;5038869;28;20041;-79
2022/04/12 07:43:20;;;;;;;18.75;9.90;;;8.30;99.90;;;;;;5040301;28;20052;-79
2022/04/12 07:45:46;;;;;;;15.77;10.38;;;8.00;99.90;;;;;;5040748;28;20057;-78
2022/04/12 07:48:12;;;;;;;15.30;9.88;;;8.10;99.90;;;;;;5041296;28;20084;-79
2022/04/12 07:50:41;;;;;;;15.95;10.20;;;8.20;99.90;;;;;;5044843;28;20484;-78
2022/04/12 07:53:07;;;;;;;13.35;9.10;;;8.30;99.90;;;;;;5037530;28;20049;-79
2022/04/12 07:55:32;;;;;;;14.88;10.15;;;8.30;99.90;;;;;;5039472;28;20120;-79
2022/04/12 07:57:58;;;;;;;17.85;11.05;;;8.40;99.90;;;;;;5037527;28;20060;-79
2022/04/12 08:00:24;;;;;;;14.65;9.90;;;8.50;99.90;;;;;;5036679;28;20049;-79
2022/04/12 08:02:50;;;;;;;15.60;9.77;;;8.60;99.90;;;;;;5039421;28;20609;-79
2022/04/12 08:05:16;;;;;;;15.55;10.15;;;8.70;99.90;;;;;;5039296;28;20037;-79
2022/04/12 08:07:47;;;;;;;17.35;11.02;;;8.80;99.90;;;;;;5042646;28;20507;-79
2022/04/12 08:10:15;;;;;;;16.48;10.05;;;8.90;99.90;;;;;;5045772;28;20041;-79
2022/04/12 08:12:41;;;;;;;14.73;9.27;;;9.00;99.90;;;;;;5043426;28;20073;-79
2022/04/12 08:15:07;;;;;;;14.10;9.32;;;9.10;99.90;;;;;;5038046;28;20049;-79
2022/04/12 08:17:32;;;;;;;15.50;9.63;;;9.20;99.90;;;;;;5043576;28;20045;-79
2022/04/12 08:19:59;;;;;;;14.90;9.50;;;9.30;99.90;;;;;;5044406;28;20045;-79
2022/04/12 08:22:24;;;;;;;18.17;10.38;;;9.50;99.90;;;;;;5043090;28;20063;-80
2022/04/12 08:24:50;;;;;;;17.67;10.27;;;9.60;99.90;;;;;;5038335;28;20045;-79
2022/04/12 08:27:15;;;;;;;15.07;10.27;;;9.70;99.90;;;;;;5038432;28;20131;-79
2022/04/12 08:29:41;;;;;;;16.02;9.75;;;9.90;99.90;;;;;;5040813;28;20092;-80
2022/04/12 08:32:07;;;;;;;15.00;10.05;;;10.00;99.90;;;;;;5042881;28;20037;-79
2022/04/12 08:34:32;;;;;;;14.27;9.32;;;10.10;99.90;;;;;;5034904;28;20045;-79
2022/04/12 08:36:58;;;;;;;20.35;10.73;;;10.30;99.90;;;;;;5038751;28;20550;-79
2022/04/12 08:39:24;;;;;;;13.45;9.38;;;10.40;99.90;;;;;;5041894;28;20037;-79
2022/04/12 08:41:51;;;;;;;13.15;9.13;;;10.50;99.90;;;;;;5033081;28;20459;-79
2022/04/12 08:44:18;;;;;;;14.73;9.38;;;10.70;99.90;;;;;;5043893;28;20442;-79
2022/04/12 08:46:47;;;;;;;14.48;9.40;;;10.90;99.90;;;;;;5044045;28;20081;-78
2022/04/12 08:49:14;;;;;;;13.75;9.57;;;11.00;99.90;;;;;;5045156;28;20048;-79
2022/04/12 08:51:40;;;;;;;14.13;9.10;;;11.20;99.90;;;;;;5046065;28;20053;-78
2022/04/12 08:54:06;;;;;;;13.07;8.48;;;11.40;99.90;;;;;;5046547;28;20047;-78
2022/04/12 08:56:32;;;;;;;14.40;9.15;;;11.50;99.90;;;;;;5039824;28;20098;-79
2022/04/12 08:58:58;;;;;;;15.80;9.60;;;11.70;99.90;;;;;;5044763;28;20048;-79
2022/04/12 09:01:24;;;;;;;14.85;9.27;;;11.90;99.90;;;;;;5044545;28;20072;-79
2022/04/12 09:03:50;;;;;;;15.63;8.38;;;12.10;99.90;;;;;;5048888;28;20052;-79
2022/04/12 09:06:16;;;;;;;16.23;9.77;;;12.30;99.90;;;;;;5047803;28;20493;-79
2022/04/12 09:08:42;;;;;;;14.05;9.00;;;12.40;99.90;;;;;;5042772;28;20511;-79
2022/04/12 09:11:08;;;;;;;13.82;8.35;;;12.60;99.90;;;;;;5048135;28;20083;-79
2022/04/12 09:13:35;;;;;;;18.48;9.40;;;12.70;99.90;;;;;;5047120;28;20057;-79
2022/04/12 09:16:06;;;;;;;12.90;8.85;;;12.80;99.90;;;;;;5048000;28;20041;-79
2022/04/12 09:18:39;;;;;;;14.68;8.60;;;12.90;99.90;;;;;;5049077;28;20846;-79
2022/04/12 09:21:16;;;;;;;16.23;8.55;;;12.90;99.90;;;;;;5046613;28;20481;-79
2022/04/12 09:23:53;;;;;;;14.65;8.25;;;13.00;99.90;;;;;;5050515;28;20037;-79
2022/04/12 09:26:29;;;;;;;14.75;8.75;;;13.10;99.90;;;;;;5049543;28;20047;-79
2022/04/12 09:28:56;;;;;;;15.30;8.90;;;13.20;99.90;;;;;;5052431;28;20099;-79
2022/04/12 09:31:23;;;;;;;12.93;8.27;;;13.30;99.90;;;;;;5046849;28;20079;-79
2022/04/12 09:33:51;;;;;;;16.42;9.80;;;13.50;99.90;;;;;;5046652;28;20037;-79
2022/04/12 09:36:17;;;;;;;14.30;9.18;;;13.60;99.90;;;;;;5064297;28;20403;-79
2022/04/12 09:38:44;;;;;;;13.10;8.52;;;13.70;99.90;;;;;;5051745;28;20119;-79
2022/04/12 09:41:20;;;;;;;15.98;9.25;;;13.80;99.90;;;;;;5030524;28;20083;-79
2022/04/12 09:44:08;;;;;;;15.38;9.60;;;13.90;99.90;;;;;;5042656;28;20151;-79
2022/04/12 09:46:39;;;;;;;14.70;9.00;;;14.00;99.90;;;;;;5046276;28;20049;-79
2022/04/12 09:49:06;;;;;;;13.15;8.80;;;14.10;99.90;;;;;;5041593;28;20396;-79
2022/04/12 09:51:36;;;;;;;13.57;9.15;;;14.30;99.90;;;;;;5047679;28;20136;-79
2022/04/12 09:54:06;;;;;;;14.57;9.18;;;14.30;99.90;;;;;;5049152;28;20072;-80
2022/04/12 09:56:33;;;;;;;16.10;8.77;;;14.40;99.90;;;;;;5046653;28;20057;-80
2022/04/12 09:59:06;;;;;;;15.50;9.57;;;14.60;99.90;;;;;;5052978;28;20516;-79
2022/04/12 10:01:39;;;;;;;16.58;9.48;;;14.70;99.90;;;;;;5062187;28;20044;-80
2022/04/12 10:04:10;;;;;;;14.65;9.05;;;14.80;99.90;;;;;;5072417;28;20040;-80
2022/04/12 10:06:41;;;;;;;15.00;9.40;;;14.90;99.90;;;;;;5055574;28;20098;-79
2022/04/12 10:09:09;;;;;;;13.60;8.80;;;14.90;99.90;;;;;;5052621;28;20127;-80
2022/04/12 10:11:36;;;;;;;11.70;8.77;;;15.00;99.90;;;;;;5051133;28;20103;-80
2022/04/12 10:14:02;;;;;;;15.90;9.77;;;15.10;99.90;;;;;;5052515;28;20124;-80
2022/04/12 10:16:28;;;;;;;13.93;8.95;;;15.30;99.90;;;;;;5051508;28;20163;-79
2022/04/12 10:18:54;;;;;;;12.88;8.70;;;15.40;99.90;;;;;;5052704;28;20041;-80
2022/04/12 10:21:22;;;;;;;12.38;8.95;;;15.60;99.90;;;;;;5039242;28;20045;-80
2022/04/12 10:23:56;;;;;;;12.95;8.60;;;15.70;99.90;;;;;;5050483;28;20041;-80
2022/04/12 10:26:24;;;;;;;13.85;9.13;;;15.90;99.90;;;;;;5053212;28;20041;-79
2022/04/12 10:29:01;;;;;;;13.48;9.02;;;16.00;99.90;;;;;;5052742;28;20053;-80
2022/04/12 10:31:33;;;;;;;15.77;9.30;;;16.10;99.90;;;;;;5042441;28;20033;-79
2022/04/12 10:34:01;;;;;;;13.38;8.38;;;16.20;99.90;;;;;;5055091;28;20048;-79
2022/04/12 10:36:54;;;;;;;12.88;9.38;;;16.20;99.80;;;;;;5065455;28;20045;-79
2022/04/12 10:39:35;;;;;;;13.63;9.23;;;16.30;98.00;;;;;;5042950;28;20484;-79
2022/04/12 10:42:14;;;;;;;15.25;9.40;;;16.30;98.10;;;;;;5043121;28;20041;-79
2022/04/12 10:44:43;;;;;;;13.40;9.13;;;16.40;99.90;;;;;;5044449;28;20048;-80
2022/04/12 10:47:31;;;;;;;16.15;9.13;;;16.50;99.40;;;;;;5039802;28;20493;-79
2022/04/12 10:50:07;;;;;;;12.20;8.25;;;16.70;98.40;;;;;;5041784;28;20033;-78
2022/04/12 10:52:48;;;;;;;12.80;9.10;;;16.80;98.30;;;;;;5040192;28;20111;-78
2022/04/12 10:55:20;;;;;;;11.43;8.20;;;17.00;97.50;;;;;;5035467;28;20038;-79
2022/04/12 10:57:46;;;;;;;14.15;9.18;;;17.10;96.60;;;;;;5039029;28;20065;-79
2022/04/12 11:00:14;;;;;;;13.88;8.40;;;17.20;97.30;;;;;;5053999;28;20037;-80
2022/04/12 11:02:57;;;;;;;11.70;8.38;;;17.30;97.00;;;;;;5033141;28;20076;-80
2022/04/12 11:05:42;;;;;;;13.82;9.07;;;17.40;95.90;;;;;;5041035;28;20041;-80
2022/04/12 11:08:13;;;;;;;13.90;8.48;;;17.50;95.70;;;;;;5039577;28;20124;-79
2022/04/12 11:10:41;;;;;;;12.18;9.00;;;17.60;96.20;;;;;;5045187;28;20055;-81
2022/04/12 11:13:09;;;;;;;11.27;8.45;;;17.80;96.20;;;;;;5049164;28;20488;-81
2022/04/12 11:15:37;;;;;;;16.17;9.25;;;17.80;95.60;;;;;;5046653;28;20041;-78
2022/04/12 11:18:11;;;;;;;12.43;8.98;;;17.90;95.70;;;;;;5045617;28;20115;-81
2022/04/12 11:20:39;;;;;;;17.48;8.68;;;18.00;95.30;;;;;;5035026;28;20045;-73
2022/04/12 11:23:10;;;;;;;14.98;8.20;;;18.10;94.40;;;;;;5040947;28;20069;-79
2022/04/12 11:25:53;;;;;;;11.48;8.55;;;18.20;93.70;;;;;;5034794;28;20048;-79
2022/04/12 11:28:23;;;;;;;13.95;9.30;;;18.40;94.40;;;;;;5042181;28;20053;-78
2022/04/12 11:30:57;;;;;;;13.15;9.02;;;18.40;93.60;;;;;;5039757;28;20049;-75
2022/04/12 11:33:28;;;;;;;13.70;8.23;;;18.40;93.00;;;;;;5036068;28;20152;-78
2022/04/12 11:35:55;;;;;;;17.13;8.90;;;18.50;94.00;;;;;;5044406;28;20497;-78
2022/04/12 11:38:22;;;;;;;14.15;8.88;;;18.50;92.50;;;;;;5036564;28;20045;-78
2022/04/12 11:40:51;;;;;;;11.50;8.70;;;18.60;93.90;;;;;;5038436;28;20091;-78
2022/04/12 11:43:27;;;;;;;11.77;8.85;;;18.70;93.70;;;;;;5037751;28;20069;-78
2022/04/12 11:45:57;;;;;;;13.95;8.05;;;18.80;93.00;;;;;;5038839;28;20472;-78
2022/04/12 11:48:27;;;;;;;15.77;7.93;;;18.90;92.70;;;;;;5038789;28;20151;-78
2022/04/12 11:50:54;;;;;;;16.45;8.23;;;18.90;92.30;;;;;;5037265;28;20484;-78
2022/04/12 11:53:21;;;;;;;12.75;8.38;;;18.90;92.60;;;;;;5044703;28;20048;-75
2022/04/12 11:55:47;;;;;;;13.52;8.13;;;18.80;92.00;;;;;;5029917;28;20387;-76
2022/04/12 11:58:14;;;;;;;13.35;7.53;;;18.80;91.90;;;;;;5037480;28;20065;-75
2022/04/12 12:00:40;;;;;;;13.63;8.07;;;18.70;92.00;;;;;;5044649;28;20115;-76
2022/04/12 12:03:12;;;;;;;13.57;8.10;;;18.70;92.10;;;;;;5033537;28;20128;-76
2022/04/12 12:05:38;;;;;;;11.00;7.88;;;18.60;92.50;;;;;;5039350;28;20075;-76
2022/04/12 12:08:03;;;;;;;11.98;8.63;;;18.70;92.50;;;;;;5040403;28;20084;-76
2022/04/12 12:10:30;;;;;;;15.45;8.20;;;18.80;92.70;;;;;;5039456;28;20049;-76
2022/04/12 12:12:56;;;;;;;14.15;8.70;;;18.90;91.60;;;;;;5039458;28;20049;-75
2022/04/12 12:15:26;;;;;;;13.93;8.63;;;18.90;92.30;;;;;;5041221;28;20049;-75
2022/04/12 12:18:00;;;;;;;15.43;9.90;;;19.10;92.50;;;;;;5042828;28;20043;-75
2022/04/12 12:20:30;;;;;;;13.75;8.43;;;19.20;92.00;;;;;;5040070;28;20049;-76
2022/04/12 12:22:58;;;;;;;13.98;9.10;;;19.30;92.20;;;;;;5043442;28;20130;-77
2022/04/12 12:25:43;;;;;;;15.70;8.88;;;19.40;92.90;;;;;;5037176;28;20450;-76
2022/04/12 12:28:15;;;;;;;13.05;8.38;;;19.60;91.60;;;;;;5038043;28;20080;-77
2022/04/12 12:30:42;;;;;;;18.15;9.40;;;19.60;92.60;;;;;;5042620;28;20061;-76
2022/04/12 12:33:11;;;;;;;18.23;9.45;;;19.70;92.00;;;;;;5040807;28;20067;-77
2022/04/12 12:35:41;;;;;;;14.38;9.13;;;19.80;91.80;;;;;;5031786;28;20112;-76
2022/04/12 12:38:17;;;;;;;14.73;8.63;;;19.80;91.50;;;;;;5055418;28;20489;-76
2022/04/12 12:40:45;;;;;;;12.70;8.50;;;19.80;90.60;;;;;;5037057;28;20400;-74
2022/04/12 12:43:13;;;;;;;14.00;8.45;;;19.90;91.10;;;;;;5035719;28;20044;-78
2022/04/12 12:45:46;;;;;;;14.38;8.80;;;20.00;90.90;;;;;;5035650;28;20049;-76
2022/04/12 12:48:15;;;;;;;14.35;8.43;;;20.10;90.10;;;;;;5030906;28;20120;-76